Hovedside
METAR-TAF:

METAR-TAF

Lufthavner :

Stord, Norge

Stord lufthavn. Sørstokken

breddegrad: 59-48N, lengdegrad: 005-21E, høyde over havet: 49 m

Gjeldene værobservasjon

Denne rapporten ble laget for 7 timer og 5 minutter siden, klokken 14:20 UTC
Vind 5 kt fra Sør
Temperatur 3°C
Luftfuktighet 60%
Trykk 1036 hPa
Sikt 10 km eller mer
Brutte skyer i en høyde av 5000 ft

METAR: ENSO 241420Z 19005KT 9999 BKN050 03/M04 Q1036

Tid: 22:25 (21:25 UTC)


TAF: fraværende

Værobservasjoner og værvarsel for over 4000 flyplasser (METAR- og TAF-rapporter).

Tilgjengelige stasjoner er representert av de røde og gule prikkene på kartet.

Hold musepekeren over prikken for å se navnet på stasjonen.

Klikk så for å se værobservasjoner og -varsler.

For å forandre kartet kan du klikke på den grønne knappen med svart kryss for å zoome inn, på den grønne knappen med strek for å zoome ut, eller på de grønne pilene for å se tilstøtende kart.


METAR-TAF: